createdAt,value
2018-07-22T00:00:05.735Z,4.37
2018-07-22T00:02:43.843Z,5.13
2018-07-22T00:05:22.890Z,6.80
2018-07-22T00:08:01.330Z,5.27
2018-07-22T00:10:39.684Z,5.33
2018-07-22T00:13:18.169Z,4.33
2018-07-22T00:15:56.832Z,3.93
2018-07-22T00:18:35.537Z,3.80
2018-07-22T00:21:14.001Z,5.37
2018-07-22T00:23:52.423Z,8.80
2018-07-22T00:26:29.305Z,6.90
2018-07-22T00:29:10.435Z,4.63
2018-07-22T00:31:48.140Z,4.37
2018-07-22T00:34:26.270Z,5.87
2018-07-22T00:37:04.654Z,5.93
2018-07-22T00:39:42.738Z,6.20
2018-07-22T00:42:21.142Z,6.43
2018-07-22T00:44:59.227Z,6.33
2018-07-22T00:47:37.662Z,6.30
2018-07-22T00:50:15.773Z,5.93
2018-07-22T00:52:54.418Z,4.07
2018-07-22T00:55:32.760Z,5.27
2018-07-22T00:58:10.640Z,6.93
2018-07-22T01:00:48.372Z,4.63
2018-07-22T01:03:27.442Z,7.03
2018-07-22T01:06:05.644Z,6.37
2018-07-22T01:08:44.571Z,5.57
2018-07-22T01:11:23.044Z,5.33
2018-07-22T01:14:01.444Z,4.77
2018-07-22T01:16:40.414Z,5.17
2018-07-22T01:19:18.767Z,6.33
2018-07-22T01:21:56.649Z,8.07
2018-07-22T01:24:35.612Z,7.97
2018-07-22T01:27:14.569Z,5.57
2018-07-22T01:29:52.337Z,5.80
2018-07-22T01:32:31.306Z,6.53
2018-07-22T01:35:10.269Z,8.13
2018-07-22T01:37:48.175Z,7.20
2018-07-22T01:40:26.500Z,5.90
2018-07-22T01:43:05.027Z,8.80
2018-07-22T01:45:43.059Z,8.93
2018-07-22T01:48:24.671Z,8.10
2018-07-22T01:51:02.500Z,7.93
2018-07-22T01:53:40.261Z,7.17
2018-07-22T01:56:19.388Z,6.23
2018-07-22T01:58:56.631Z,6.70
2018-07-22T02:01:35.789Z,6.83
2018-07-22T02:04:14.805Z,6.07
2018-07-22T02:06:53.574Z,7.10
2018-07-22T02:09:32.152Z,6.17
2018-07-22T02:12:10.660Z,6.13
2018-07-22T02:14:49.446Z,5.03
2018-07-22T02:17:27.555Z,5.50
2018-07-22T02:20:05.419Z,5.80
2018-07-22T02:22:44.018Z,6.30
2018-07-22T02:25:22.097Z,6.17
2018-07-22T02:28:00.871Z,7.60
2018-07-22T02:30:39.194Z,8.43
2018-07-22T02:33:17.196Z,5.43
2018-07-22T02:35:55.910Z,6.57
2018-07-22T02:38:33.293Z,6.70
2018-07-22T02:41:11.774Z,5.83
2018-07-22T02:43:50.008Z,5.00
2018-07-22T02:46:28.656Z,5.30
2018-07-22T02:49:07.707Z,7.70
2018-07-22T02:51:53.639Z,8.03
2018-07-22T02:57:19.887Z,9.13
2018-07-22T02:59:59.290Z,10.00
2018-07-22T03:02:37.602Z,8.63
2018-07-22T03:05:20.693Z,7.30
2018-07-22T03:07:59.203Z,7.43
2018-07-22T03:10:38.514Z,8.97
2018-07-22T03:13:19.841Z,7.70
2018-07-22T03:15:58.267Z,7.10
2018-07-22T03:18:38.250Z,7.67
2018-07-22T03:21:17.030Z,6.37
2018-07-22T03:23:55.334Z,9.27
2018-07-22T03:26:35.703Z,7.17
2018-07-22T03:29:16.018Z,7.60
2018-07-22T03:31:54.451Z,6.07
2018-07-22T03:34:37.001Z,5.47
2018-07-22T03:37:32.064Z,4.57
2018-07-22T03:40:14.212Z,4.17
2018-07-22T03:42:53.285Z,4.63
2018-07-22T03:45:31.698Z,5.07
2018-07-22T03:48:15.856Z,4.73
2018-07-22T03:50:54.409Z,4.73
2018-07-22T03:53:37.600Z,4.77
2018-07-22T03:56:16.020Z,4.33
2018-07-22T03:58:54.094Z,5.30
2018-07-22T04:01:32.875Z,4.57
2018-07-22T04:04:10.564Z,5.23
2018-07-22T04:06:49.599Z,7.17
2018-07-22T04:09:28.326Z,6.73
2018-07-22T04:12:06.724Z,7.63
2018-07-22T04:14:44.803Z,5.03
2018-07-22T04:17:23.294Z,5.33
2018-07-22T04:20:00.677Z,5.07
2018-07-22T04:22:39.681Z,5.40
2018-07-22T04:25:17.484Z,4.23
2018-07-22T04:27:53.440Z,4.50
2018-07-22T04:30:31.767Z,6.43
2018-07-22T04:33:09.764Z,7.57
2018-07-22T04:35:48.604Z,8.17
2018-07-22T04:38:27.196Z,5.87
2018-07-22T04:41:05.605Z,5.63
2018-07-22T04:43:42.914Z,8.33
2018-07-22T04:46:23.063Z,7.10
2018-07-22T04:49:01.269Z,5.80
2018-07-22T04:51:38.600Z,6.90
2018-07-22T04:54:17.403Z,10.33
2018-07-22T04:56:55.685Z,8.10
2018-07-22T04:59:33.668Z,5.37
2018-07-22T05:02:11.559Z,9.07
2018-07-22T05:04:50.886Z,8.03
2018-07-22T05:07:28.628Z,7.57
2018-07-22T05:10:06.388Z,8.60
2018-07-22T05:12:44.844Z,7.07
2018-07-22T05:15:24.716Z,8.33
2018-07-22T05:18:03.438Z,11.57
2018-07-22T05:20:40.806Z,8.60
2018-07-22T05:23:27.085Z,9.90
2018-07-22T05:26:04.762Z,6.87
2018-07-22T05:28:42.165Z,8.43
2018-07-22T05:31:20.555Z,6.63
2018-07-22T05:33:59.276Z,7.33
2018-07-22T05:36:38.316Z,8.33
2018-07-22T05:39:17.032Z,8.10
2018-07-22T05:41:55.461Z,6.57
2018-07-22T05:44:33.830Z,7.00
2018-07-22T05:47:12.591Z,6.47
2018-07-22T05:49:50.316Z,7.07
2018-07-22T05:52:28.341Z,5.63
2018-07-22T05:55:07.037Z,6.60
2018-07-22T05:57:45.337Z,7.90
2018-07-22T06:00:24.271Z,7.77
2018-07-22T06:03:02.909Z,8.37
2018-07-22T06:05:44.261Z,5.03
2018-07-22T06:08:23.544Z,5.93
2018-07-22T06:11:02.088Z,7.53
2018-07-22T06:13:41.036Z,7.23
2018-07-22T06:16:19.548Z,7.83
2018-07-22T06:18:57.786Z,5.90
2018-07-22T06:21:35.920Z,6.27
2018-07-22T06:24:14.024Z,4.50
2018-07-22T06:26:53.056Z,7.47
2018-07-22T06:29:30.710Z,5.03
2018-07-22T06:32:09.152Z,5.90
2018-07-22T06:34:47.755Z,6.23
2018-07-22T06:37:26.273Z,5.13
2018-07-22T06:40:04.640Z,5.17
2018-07-22T06:42:43.195Z,4.57
2018-07-22T06:45:21.988Z,4.37
2018-07-22T06:48:00.153Z,6.00
2018-07-22T06:50:39.114Z,5.03
2018-07-22T06:53:16.885Z,5.03
2018-07-22T06:55:56.237Z,4.67
2018-07-22T06:58:35.282Z,6.53
2018-07-22T07:01:13.759Z,5.23
2018-07-22T07:03:52.029Z,5.47
2018-07-22T07:06:30.262Z,4.67
2018-07-22T07:09:09.725Z,5.67
2018-07-22T07:11:48.318Z,5.40
2018-07-22T07:14:26.633Z,5.77
2018-07-22T07:17:05.035Z,5.43
2018-07-22T07:19:42.933Z,6.50
2018-07-22T07:22:20.391Z,5.67
2018-07-22T07:24:58.729Z,6.07
2018-07-22T07:27:37.131Z,5.07
2018-07-22T07:30:15.202Z,6.73
2018-07-22T07:32:53.919Z,5.33
2018-07-22T07:35:32.953Z,5.67
2018-07-22T07:38:12.043Z,7.33
2018-07-22T07:40:50.455Z,5.53
2018-07-22T07:43:29.492Z,7.97
2018-07-22T07:46:07.528Z,8.50
2018-07-22T07:48:44.998Z,7.97
2018-07-22T07:51:23.251Z,5.33
2018-07-22T07:54:01.682Z,7.10
2018-07-22T07:56:40.154Z,9.87
2018-07-22T07:59:18.461Z,7.20
2018-07-22T08:01:56.565Z,6.13
2018-07-22T08:04:36.083Z,6.30
2018-07-22T08:07:15.119Z,7.17
2018-07-22T08:09:53.518Z,6.13
2018-07-22T08:12:32.648Z,5.27
2018-07-22T08:15:11.511Z,8.23
2018-07-22T08:17:49.642Z,6.63
2018-07-22T08:20:28.131Z,7.67
2018-07-22T08:23:06.261Z,7.57
2018-07-22T08:25:44.521Z,8.70
2018-07-22T08:28:28.413Z,11.10
2018-07-22T08:31:06.488Z,10.37
2018-07-22T08:33:45.837Z,9.40
2018-07-22T08:36:24.253Z,8.57
2018-07-22T08:39:02.321Z,10.03
2018-07-22T08:41:39.922Z,8.60
2018-07-22T08:44:19.118Z,7.17
2018-07-22T08:46:57.211Z,9.30
2018-07-22T08:49:35.054Z,7.93
2018-07-22T08:52:12.847Z,8.97
2018-07-22T08:54:51.863Z,7.90
2018-07-22T08:57:29.918Z,6.17
2018-07-22T09:00:08.252Z,8.97
2018-07-22T09:02:46.719Z,7.83
2018-07-22T09:05:25.184Z,9.13
2018-07-22T09:08:01.859Z,8.77
2018-07-22T09:10:37.652Z,7.60
2018-07-22T09:13:15.113Z,7.93
2018-07-22T09:15:51.087Z,8.57
2018-07-22T09:18:27.327Z,8.57
2018-07-22T09:21:03.211Z,7.53
2018-07-22T09:23:39.368Z,7.90
2018-07-22T09:26:15.396Z,6.77
2018-07-22T09:28:51.528Z,8.07
2018-07-22T09:31:27.246Z,8.10
2018-07-22T09:34:03.171Z,8.33
2018-07-22T09:36:39.520Z,7.70
2018-07-22T09:39:15.775Z,8.80
2018-07-22T09:41:51.542Z,10.57
2018-07-22T09:44:28.141Z,7.80
2018-07-22T09:47:03.981Z,8.83
2018-07-22T09:49:40.012Z,9.50
2018-07-22T09:52:15.942Z,9.90
2018-07-22T09:54:51.677Z,9.03
2018-07-22T09:57:27.687Z,7.57
2018-07-22T10:00:03.520Z,7.77
2018-07-22T10:02:39.411Z,9.00
2018-07-22T10:05:16.112Z,8.70
2018-07-22T10:07:52.034Z,7.70
2018-07-22T10:10:27.553Z,8.43
2018-07-22T10:13:03.350Z,7.50
2018-07-22T10:15:39.174Z,8.37
2018-07-22T10:18:14.832Z,7.47
2018-07-22T10:20:50.632Z,8.10
2018-07-22T10:23:26.659Z,8.40
2018-07-22T10:26:04.983Z,14.93
2018-07-22T10:28:43.421Z,9.30
2018-07-22T10:31:21.790Z,8.67
2018-07-22T10:34:00.388Z,8.20
2018-07-22T10:36:38.893Z,9.63
2018-07-22T10:39:18.080Z,10.93
2018-07-22T10:41:57.039Z,8.87
2018-07-22T10:44:35.355Z,6.03
2018-07-22T10:47:14.429Z,7.60
2018-07-22T10:49:53.760Z,6.73
2018-07-22T10:52:32.822Z,7.53
2018-07-22T10:55:10.249Z,7.33
2018-07-22T10:57:48.323Z,8.03
2018-07-22T11:00:26.996Z,9.17
2018-07-22T11:03:05.467Z,7.17
2018-07-22T11:05:43.517Z,9.03
2018-07-22T11:08:22.318Z,10.97
2018-07-22T11:11:01.288Z,8.87
2018-07-22T11:13:39.449Z,8.87
2018-07-22T11:16:18.079Z,8.83
2018-07-22T11:18:55.619Z,8.97
2018-07-22T11:21:32.639Z,7.57
2018-07-22T11:24:11.121Z,7.83
2018-07-22T11:26:49.161Z,7.80
2018-07-22T11:29:28.167Z,8.13
2018-07-22T11:32:05.582Z,11.53
2018-07-22T11:34:43.556Z,10.57
2018-07-22T11:37:22.156Z,12.03
2018-07-22T11:39:59.960Z,12.10
2018-07-22T11:42:38.254Z,12.20
2018-07-22T11:45:16.346Z,8.93
2018-07-22T11:47:54.740Z,12.10
2018-07-22T11:50:31.975Z,12.37
2018-07-22T11:53:09.918Z,13.13
2018-07-22T11:55:48.001Z,11.47
2018-07-22T11:58:26.120Z,12.10
2018-07-22T12:01:04.613Z,11.10
2018-07-22T12:03:42.240Z,10.67
2018-07-22T12:06:21.027Z,13.07
2018-07-22T12:08:59.038Z,14.90
2018-07-22T12:11:35.712Z,12.13
2018-07-22T12:14:13.914Z,12.33
2018-07-22T12:16:53.026Z,13.07
2018-07-22T12:19:30.199Z,11.50
2018-07-22T12:22:08.257Z,12.57
2018-07-22T12:24:46.379Z,10.90
2018-07-22T12:27:24.823Z,10.93
2018-07-22T12:30:02.569Z,13.03
2018-07-22T12:32:40.962Z,11.23
2018-07-22T12:35:19.365Z,11.07
2018-07-22T12:37:57.757Z,13.67
2018-07-22T12:40:35.403Z,10.60
2018-07-22T12:43:17.125Z,11.80
2018-07-22T12:45:59.944Z,11.07
2018-07-22T12:48:38.662Z,11.73
2018-07-22T12:51:17.356Z,13.13
2018-07-22T12:53:55.188Z,13.57
2018-07-22T12:56:33.197Z,13.00
2018-07-22T12:59:11.285Z,11.70
2018-07-22T13:01:50.495Z,12.63
2018-07-22T13:04:27.921Z,10.00
2018-07-22T13:07:05.689Z,10.67
2018-07-22T13:09:43.825Z,9.57
2018-07-22T13:12:22.568Z,11.67
2018-07-22T13:15:00.247Z,9.77
2018-07-22T13:17:38.718Z,10.37
2018-07-22T13:20:16.592Z,10.53
2018-07-22T13:22:53.944Z,9.23
2018-07-22T13:25:31.643Z,12.53
2018-07-22T13:28:10.086Z,13.60
2018-07-22T13:30:47.919Z,12.23
2018-07-22T13:33:27.460Z,10.90
2018-07-22T13:36:05.274Z,14.33
2018-07-22T13:38:45.993Z,11.60
2018-07-22T13:41:24.373Z,12.37
2018-07-22T13:44:02.582Z,11.87
2018-07-22T13:46:41.929Z,10.33
2018-07-22T13:49:19.770Z,11.37
2018-07-22T13:51:58.298Z,10.60
2018-07-22T13:58:14.759Z,11.30
2018-07-22T14:01:23.135Z,12.10
2018-07-22T14:06:57.094Z,11.47
2018-07-22T14:09:45.984Z,14.57
2018-07-22T14:12:52.067Z,17.07
2018-07-22T14:15:54.453Z,16.53
2018-07-22T14:18:50.390Z,18.30
2018-07-22T14:21:49.440Z,15.17
2018-07-22T14:24:45.045Z,13.20
2018-07-22T14:27:40.585Z,16.80
2018-07-22T14:30:27.018Z,18.77
2018-07-22T14:33:25.204Z,17.03
2018-07-22T14:36:23.014Z,18.80
2018-07-22T14:39:27.771Z,19.33
2018-07-22T14:42:07.188Z,20.07
2018-07-22T14:44:45.384Z,21.97
2018-07-22T14:47:22.372Z,19.87
2018-07-22T14:50:00.987Z,22.13
2018-07-22T14:52:38.211Z,21.00
2018-07-22T14:55:15.907Z,19.63
2018-07-22T14:57:58.702Z,21.97
2018-07-22T15:07:19.767Z,22.82
2018-07-22T15:09:59.369Z,22.17
2018-07-22T15:12:43.291Z,18.27
2018-07-22T15:15:24.263Z,19.33
2018-07-22T15:18:01.197Z,20.07
2018-07-22T15:20:38.331Z,21.73
2018-07-22T15:23:15.132Z,19.77
2018-07-22T15:25:53.219Z,21.57
2018-07-22T15:28:40.388Z,20.27
2018-07-22T15:31:18.399Z,20.67
2018-07-22T15:33:58.783Z,19.43
2018-07-22T15:36:37.639Z,19.40
2018-07-22T15:39:15.592Z,20.37
2018-07-22T15:41:52.810Z,21.63
2018-07-22T15:44:30.610Z,19.43
2018-07-22T15:47:07.953Z,19.33
2018-07-22T15:49:59.492Z,21.47
2018-07-22T15:52:41.642Z,20.87
2018-07-22T15:55:23.401Z,19.93
2018-07-22T15:58:08.696Z,18.93
2018-07-22T16:01:07.994Z,17.43
2018-07-22T16:03:50.346Z,16.00
2018-07-22T16:06:36.601Z,16.17
2018-07-22T16:09:23.412Z,16.37
2018-07-22T16:12:03.279Z,16.53
2018-07-22T16:29:57.266Z,16.07
2018-07-22T16:36:10.591Z,18.07
2018-07-22T16:42:39.681Z,17.67
2018-07-22T16:56:29.324Z,15.23
2018-07-22T16:59:21.441Z,9.53
2018-07-22T17:02:09.881Z,10.93
2018-07-22T17:05:01.812Z,7.50
2018-07-22T17:07:54.056Z,8.63
2018-07-22T17:14:08.463Z,7.73
2018-07-22T17:19:38.902Z,6.27
2018-07-22T17:22:34.126Z,6.27
2018-07-22T17:25:30.276Z,7.60
2018-07-22T17:31:21.092Z,5.97
2018-07-22T18:20:41.110Z,5.40
2018-07-22T19:05:53.328Z,8.33
2018-07-22T19:08:46.909Z,7.47
2018-07-22T19:11:27.134Z,5.30
2018-07-22T19:14:14.287Z,7.27
2018-07-22T19:17:00.500Z,6.63
2018-07-22T19:22:44.044Z,6.03
2018-07-22T19:25:28.450Z,6.03
2018-07-22T19:28:08.330Z,7.37
2018-07-22T19:30:47.092Z,8.17
2018-07-22T19:33:41.995Z,5.80
2018-07-22T19:39:30.134Z,5.47
2018-07-22T19:42:16.871Z,7.07
2018-07-22T19:44:58.388Z,5.90
2018-07-22T19:47:58.776Z,8.53
2018-07-22T19:50:55.072Z,6.90
2018-07-22T19:56:39.002Z,4.93
2018-07-22T20:00:40.997Z,5.00
2018-07-22T20:03:23.044Z,4.77
2018-07-22T20:06:27.758Z,2.93
2018-07-22T20:09:12.471Z,2.67
2018-07-22T20:11:55.869Z,4.03
2018-07-22T20:14:36.427Z,2.30
2018-07-22T20:20:15.673Z,3.73
2018-07-22T20:23:00.662Z,3.87
2018-07-22T20:25:40.485Z,3.50
2018-07-22T20:28:17.623Z,3.53
2018-07-22T20:30:56.013Z,4.73
2018-07-22T20:33:36.591Z,3.50
2018-07-22T20:36:30.872Z,3.73
2018-07-22T20:39:16.166Z,4.53
2018-07-22T20:42:00.350Z,6.67
2018-07-22T20:44:42.003Z,4.07
2018-07-22T20:47:24.542Z,4.37
2018-07-22T20:50:14.793Z,4.37
2018-07-22T20:53:09.995Z,2.90
2018-07-22T20:55:49.370Z,4.00
2018-07-22T20:58:33.809Z,3.60
2018-07-22T21:01:12.967Z,6.10
2018-07-22T21:03:50.569Z,4.30
2018-07-22T21:16:51.016Z,5.90
2018-07-22T21:23:23.718Z,3.97
2018-07-22T21:26:38.058Z,5.43
2018-07-22T21:32:20.944Z,4.67
2018-07-22T21:34:59.855Z,4.93
2018-07-22T21:37:44.091Z,6.47
2018-07-22T21:40:23.232Z,4.97
2018-07-22T21:43:03.787Z,5.03
2018-07-22T21:45:51.765Z,6.70
2018-07-22T21:48:43.309Z,5.27
2018-07-22T21:51:27.478Z,5.30
2018-07-22T21:54:29.842Z,7.07
2018-07-22T21:57:47.849Z,6.57
2018-07-22T22:00:44.914Z,6.77
2018-07-22T22:03:42.571Z,5.03
2018-07-22T22:15:47.485Z,5.40
2018-07-22T22:18:47.577Z,4.60
2018-07-22T22:22:00.086Z,6.20
2018-07-22T22:33:37.371Z,4.70
2018-07-22T22:36:26.658Z,4.97
2018-07-22T22:39:10.803Z,5.70
2018-07-22T22:42:05.869Z,8.70
2018-07-22T22:47:40.598Z,5.47
2018-07-22T22:50:31.013Z,6.13
2018-07-22T22:56:26.494Z,6.57
2018-07-22T23:02:28.532Z,5.57
2018-07-22T23:07:58.017Z,6.57
2018-07-22T23:10:47.474Z,7.90
2018-07-22T23:25:13.194Z,6.43
2018-07-22T23:28:13.857Z,8.80
2018-07-22T23:31:28.134Z,8.07
2018-07-22T23:34:44.093Z,7.20
2018-07-22T23:37:40.289Z,6.83
2018-07-22T23:43:44.364Z,7.47
2018-07-22T23:46:30.184Z,7.33
2018-07-22T23:52:27.466Z,6.03
2018-07-22T23:55:30.542Z,7.40
2018-07-22T23:58:37.435Z,7.03
